sensor_id;sensor_type;location;lat;lon;timestamp;pressure;altitude;pressure_sealevel;temperature;humidity
4586;BME280;2305;50.118;8.952;2023-01-28T00:01:40;101444.03;;;3.78;100.00
4586;BME280;2305;50.118;8.952;2023-01-28T00:04:08;101448.53;;;3.73;100.00
4586;BME280;2305;50.118;8.952;2023-01-28T00:06:39;101445.88;;;3.74;100.00
4586;BME280;2305;50.118;8.952;2023-01-28T00:09:09;101445.94;;;3.73;100.00
4586;BME280;2305;50.118;8.952;2023-01-28T00:11:38;101439.94;;;3.71;100.00
4586;BME280;2305;50.118;8.952;2023-01-28T00:14:06;101445.97;;;3.71;100.00
4586;BME280;2305;50.118;8.952;2023-01-28T00:16:37;101438.91;;;3.75;100.00
4586;BME280;2305;50.118;8.952;2023-01-28T00:19:05;101428.47;;;3.75;100.00
4586;BME280;2305;50.118;8.952;2023-01-28T00:21:33;101441.50;;;3.75;100.00
4586;BME280;2305;50.118;8.952;2023-01-28T00:24:04;101442.25;;;3.78;100.00
4586;BME280;2305;50.118;8.952;2023-01-28T00:26:34;101438.06;;;3.74;100.00
4586;BME280;2305;50.118;8.952;2023-01-28T00:29:04;101439.19;;;3.67;100.00
4586;BME280;2305;50.118;8.952;2023-01-28T00:31:33;101439.13;;;3.69;100.00
4586;BME280;2305;50.118;8.952;2023-01-28T00:34:02;101443.66;;;3.64;100.00
4586;BME280;2305;50.118;8.952;2023-01-28T00:36:31;101439.34;;;3.63;100.00
4586;BME280;2305;50.118;8.952;2023-01-28T00:38:59;101441.72;;;3.69;100.00
4586;BME280;2305;50.118;8.952;2023-01-28T00:41:28;101440.03;;;3.68;100.00
4586;BME280;2305;50.118;8.952;2023-01-28T00:43:58;101441.59;;;3.73;100.00
4586;BME280;2305;50.118;8.952;2023-01-28T00:46:28;101454.31;;;3.81;100.00
4586;BME280;2305;50.118;8.952;2023-01-28T00:48:56;101449.22;;;3.78;100.00
4586;BME280;2305;50.118;8.952;2023-01-28T00:51:24;101447.41;;;3.80;100.00
4586;BME280;2305;50.118;8.952;2023-01-28T00:53:53;101459.66;;;3.78;100.00
4586;BME280;2305;50.118;8.952;2023-01-28T00:56:22;101454.31;;;3.81;100.00
4586;BME280;2305;50.118;8.952;2023-01-28T00:58:50;101460.44;;;3.80;100.00
4586;BME280;2305;50.118;8.952;2023-01-28T01:01:22;101457.09;;;3.76;100.00
4586;BME280;2305;50.118;8.952;2023-01-28T01:03:51;101464.56;;;3.85;100.00
4586;BME280;2305;50.118;8.952;2023-01-28T01:06:31;101464.66;;;3.84;100.00
4586;BME280;2305;50.118;8.952;2023-01-28T01:08:59;101463.66;;;3.86;100.00
4586;BME280;2305;50.118;8.952;2023-01-28T01:11:28;101461.13;;;3.85;100.00
4586;BME280;2305;50.118;8.952;2023-01-28T01:13:58;101460.31;;;3.83;100.00
4586;BME280;2305;50.118;8.952;2023-01-28T01:16:30;101458.63;;;3.82;100.00
4586;BME280;2305;50.118;8.952;2023-01-28T01:19:03;101458.56;;;3.83;100.00
4586;BME280;2305;50.118;8.952;2023-01-28T01:21:35;101459.44;;;3.84;100.00
4586;BME280;2305;50.118;8.952;2023-01-28T01:24:03;101463.66;;;3.86;100.00
4586;BME280;2305;50.118;8.952;2023-01-28T01:26:32;101461.13;;;3.85;100.00
4586;BME280;2305;50.118;8.952;2023-01-28T01:29:00;101460.41;;;3.81;100.00
4586;BME280;2305;50.118;8.952;2023-01-28T01:31:35;101467.19;;;3.85;100.00
4586;BME280;2305;50.118;8.952;2023-01-28T01:34:03;101467.97;;;3.87;100.00
4586;BME280;2305;50.118;8.952;2023-01-28T01:36:34;101473.25;;;3.86;100.00
4586;BME280;2305;50.118;8.952;2023-01-28T01:39:02;101465.38;;;3.87;100.00
4586;BME280;2305;50.118;8.952;2023-01-28T01:41:31;101469.56;;;3.91;100.00
4586;BME280;2305;50.118;8.952;2023-01-28T01:44:01;101467.97;;;3.87;100.00
4586;BME280;2305;50.118;8.952;2023-01-28T01:46:38;101472.41;;;3.85;100.00
4586;BME280;2305;50.118;8.952;2023-01-28T01:49:14;101473.13;;;3.89;100.00
4586;BME280;2305;50.118;8.952;2023-01-28T01:51:50;101475.75;;;3.89;100.00
4586;BME280;2305;50.118;8.952;2023-01-28T01:54:21;101476.81;;;3.83;100.00
4586;BME280;2305;50.118;8.952;2023-01-28T01:56:52;101476.50;;;3.92;100.00
4586;BME280;2305;50.118;8.952;2023-01-28T01:59:24;101475.78;;;3.87;100.00
4586;BME280;2305;50.118;8.952;2023-01-28T02:01:57;101479.13;;;3.91;100.00
4586;BME280;2305;50.118;8.952;2023-01-28T02:04:32;101486.34;;;3.84;100.00
4586;BME280;2305;50.118;8.952;2023-01-28T02:07:02;101485.56;;;3.82;100.00
4586;BME280;2305;50.118;8.952;2023-01-28T02:09:32;101482.19;;;3.79;100.00
4586;BME280;2305;50.118;8.952;2023-01-28T02:12:05;101482.09;;;3.82;100.00
4586;BME280;2305;50.118;8.952;2023-01-28T02:14:40;101477.72;;;3.82;100.00
4586;BME280;2305;50.118;8.952;2023-01-28T02:17:11;101481.16;;;3.83;100.00
4586;BME280;2305;50.118;8.952;2023-01-28T02:19:44;101483.03;;;3.79;100.00
4586;BME280;2305;50.118;8.952;2023-01-28T02:22:28;101476.13;;;3.78;100.00
4586;BME280;2305;50.118;8.952;2023-01-28T02:25:26;101474.44;;;3.77;100.00
4586;BME280;2305;50.118;8.952;2023-01-28T02:28:12;101471.09;;;3.74;100.00
4586;BME280;2305;50.118;8.952;2023-01-28T02:30:49;101478.66;;;3.81;100.00
4586;BME280;2305;50.118;8.952;2023-01-28T02:33:26;101477.00;;;3.79;100.00
4586;BME280;2305;50.118;8.952;2023-01-28T02:36:01;101472.72;;;3.76;100.00
4586;BME280;2305;50.118;8.952;2023-01-28T02:38:32;101473.69;;;3.74;100.00
4586;BME280;2305;50.118;8.952;2023-01-28T02:41:06;101486.75;;;3.72;100.00
4586;BME280;2305;50.118;8.952;2023-01-28T02:43:41;101473.72;;;3.72;100.00
4586;BME280;2305;50.118;8.952;2023-01-28T02:46:16;101478.19;;;3.69;100.00
4586;BME280;2305;50.118;8.952;2023-01-28T02:49:05;101475.47;;;3.73;100.00
4586;BME280;2305;50.118;8.952;2023-01-28T02:51:47;101481.66;;;3.69;100.00
4586;BME280;2305;50.118;8.952;2023-01-28T02:54:24;101485.06;;;3.71;100.00
4586;BME280;2305;50.118;8.952;2023-01-28T02:56:59;101479.84;;;3.71;100.00
4586;BME280;2305;50.118;8.952;2023-01-28T02:59:41;101491.19;;;3.70;100.00
4586;BME280;2305;50.118;8.952;2023-01-28T03:02:21;101492.22;;;3.66;100.00
4586;BME280;2305;50.118;8.952;2023-01-28T03:04:57;101493.00;;;3.68;100.00
4586;BME280;2305;50.118;8.952;2023-01-28T03:07:30;101492.06;;;3.71;100.00
4586;BME280;2305;50.118;8.952;2023-01-28T03:10:02;101495.69;;;3.65;100.00
4586;BME280;2305;50.118;8.952;2023-01-28T03:12:36;101494.06;;;3.63;100.00
4586;BME280;2305;50.118;8.952;2023-01-28T03:15:29;101495.06;;;3.59;100.00
4586;BME280;2305;50.118;8.952;2023-01-28T03:18:20;101500.25;;;3.60;100.00
4586;BME280;2305;50.118;8.952;2023-01-28T03:21:09;101502.84;;;3.60;100.00
4586;BME280;2305;50.118;8.952;2023-01-28T03:24:02;101507.22;;;3.58;100.00
4586;BME280;2305;50.118;8.952;2023-01-28T03:26:53;101514.22;;;3.58;100.00
4586;BME280;2305;50.118;8.952;2023-01-28T03:29:43;101509.84;;;3.58;100.00
4586;BME280;2305;50.118;8.952;2023-01-28T03:32:33;101508.88;;;3.61;100.00
4586;BME280;2305;50.118;8.952;2023-01-28T03:35:21;101510.75;;;3.57;100.00
4586;BME280;2305;50.118;8.952;2023-01-28T03:38:09;101516.78;;;3.59;100.00
4586;BME280;2305;50.118;8.952;2023-01-28T03:40:51;101520.38;;;3.55;100.00
4586;BME280;2305;50.118;8.952;2023-01-28T03:43:19;101521.13;;;3.59;100.00
4586;BME280;2305;50.118;8.952;2023-01-28T03:45:49;101521.16;;;3.57;100.00
4586;BME280;2305;50.118;8.952;2023-01-28T03:48:24;101524.59;;;3.59;100.00
4586;BME280;2305;50.118;8.952;2023-01-28T03:50:54;101522.00;;;3.59;100.00
4586;BME280;2305;50.118;8.952;2023-01-28T03:53:25;101522.00;;;3.59;100.00
4586;BME280;2305;50.118;8.952;2023-01-28T03:55:55;101519.44;;;3.58;100.00
4586;BME280;2305;50.118;8.952;2023-01-28T03:58:24;101522.75;;;3.63;100.00
4586;BME280;2305;50.118;8.952;2023-01-28T04:01:13;101519.44;;;3.58;100.00
4586;BME280;2305;50.118;8.952;2023-01-28T04:03:47;101520.25;;;3.58;100.00
4586;BME280;2305;50.118;8.952;2023-01-28T04:06:22;101524.63;;;3.58;100.00
4586;BME280;2305;50.118;8.952;2023-01-28T04:08:57;101523.72;;;3.59;100.00
4586;BME280;2305;50.118;8.952;2023-01-28T04:11:31;101527.22;;;3.59;100.00
4586;BME280;2305;50.118;8.952;2023-01-28T04:14:04;101532.47;;;3.58;100.00
4586;BME280;2305;50.118;8.952;2023-01-28T04:16:55;101530.84;;;3.54;100.00
4586;BME280;2305;50.118;8.952;2023-01-28T04:19:26;101542.38;;;3.47;100.00
4586;BME280;2305;50.118;8.952;2023-01-28T04:21:58;101542.31;;;3.48;100.00
4586;BME280;2305;50.118;8.952;2023-01-28T04:24:26;101537.00;;;3.51;100.00
4586;BME280;2305;50.118;8.952;2023-01-28T04:26:55;101540.34;;;3.55;100.00
4586;BME280;2305;50.118;8.952;2023-01-28T04:29:24;101533.38;;;3.57;100.00
4586;BME280;2305;50.118;8.952;2023-01-28T04:32:00;101538.03;;;3.47;100.00
4586;BME280;2305;50.118;8.952;2023-01-28T04:35:00;101535.47;;;3.46;100.00
4586;BME280;2305;50.118;8.952;2023-01-28T04:37:43;101541.63;;;3.43;100.00
4586;BME280;2305;50.118;8.952;2023-01-28T04:40:25;101538.09;;;3.44;100.00
4586;BME280;2305;50.118;8.952;2023-01-28T04:43:01;101527.59;;;3.47;100.00
4586;BME280;2305;50.118;8.952;2023-01-28T04:45:46;101530.22;;;3.47;100.00
4586;BME280;2305;50.118;8.952;2023-01-28T04:48:38;101531.31;;;3.40;100.00
4586;BME280;2305;50.118;8.952;2023-01-28T04:51:26;101527.09;;;3.36;100.00
4586;BME280;2305;50.118;8.952;2023-01-28T04:54:17;101539.31;;;3.34;100.00
4586;BME280;2305;50.118;8.952;2023-01-28T04:56:45;101533.22;;;3.35;100.00
4586;BME280;2305;50.118;8.952;2023-01-28T04:59:16;101541.94;;;3.34;100.00
4586;BME280;2305;50.118;8.952;2023-01-28T05:01:46;101538.38;;;3.37;100.00
4586;BME280;2305;50.118;8.952;2023-01-28T05:04:14;101534.97;;;3.35;100.00
4586;BME280;2305;50.118;8.952;2023-01-28T05:06:45;101536.53;;;3.40;100.00
4586;BME280;2305;50.118;8.952;2023-01-28T05:09:18;101540.88;;;3.40;100.00
4586;BME280;2305;50.118;8.952;2023-01-28T05:11:48;101540.88;;;3.40;100.00
4586;BME280;2305;50.118;8.952;2023-01-28T05:14:17;101539.13;;;3.40;100.00
4586;BME280;2305;50.118;8.952;2023-01-28T05:17:04;101542.69;;;3.38;100.00
4586;BME280;2305;50.118;8.952;2023-01-28T05:19:33;101546.94;;;3.40;100.00
4586;BME280;2305;50.118;8.952;2023-01-28T05:22:03;101552.03;;;3.43;100.00
4586;BME280;2305;50.118;8.952;2023-01-28T05:24:41;101552.94;;;3.42;100.00
4586;BME280;2305;50.118;8.952;2023-01-28T05:27:10;101551.97;;;3.46;100.00
4586;BME280;2305;50.118;8.952;2023-01-28T05:29:38;101552.00;;;3.45;100.00
4586;BME280;2305;50.118;8.952;2023-01-28T05:32:06;101551.88;;;3.48;100.00
4586;BME280;2305;50.118;8.952;2023-01-28T05:34:38;101553.66;;;3.47;100.00
4586;BME280;2305;50.118;8.952;2023-01-28T05:37:12;101557.00;;;3.51;100.00
4586;BME280;2305;50.118;8.952;2023-01-28T05:39:40;101561.47;;;3.47;100.00
4586;BME280;2305;50.118;8.952;2023-01-28T05:42:08;101564.91;;;3.48;100.00
4586;BME280;2305;50.118;8.952;2023-01-28T05:44:42;101565.59;;;3.54;100.00
4586;BME280;2305;50.118;8.952;2023-01-28T05:47:22;101571.59;;;3.56;100.00
4586;BME280;2305;50.118;8.952;2023-01-28T05:50:12;101573.44;;;3.53;100.00
4586;BME280;2305;50.118;8.952;2023-01-28T05:52:47;101587.34;;;3.53;100.00
4586;BME280;2305;50.118;8.952;2023-01-28T05:55:23;101586.63;;;3.48;100.00
4586;BME280;2305;50.118;8.952;2023-01-28T05:57:55;101585.72;;;3.49;100.00
4586;BME280;2305;50.118;8.952;2023-01-28T06:00:25;101581.38;;;3.50;100.00
4586;BME280;2305;50.118;8.952;2023-01-28T06:02:53;101596.88;;;3.53;100.00
4586;BME280;2305;50.118;8.952;2023-01-28T06:05:24;101597.78;;;3.52;100.00
4586;BME280;2305;50.118;8.952;2023-01-28T06:07:54;101597.84;;;3.50;100.00
4586;BME280;2305;50.118;8.952;2023-01-28T06:10:22;101589.22;;;3.48;100.00
4586;BME280;2305;50.118;8.952;2023-01-28T06:12:50;101591.03;;;3.46;100.00
4586;BME280;2305;50.118;8.952;2023-01-28T06:15:30;101591.81;;;3.48;100.00
4586;BME280;2305;50.118;8.952;2023-01-28T06:18:22;101597.94;;;3.47;100.00
4586;BME280;2305;50.118;8.952;2023-01-28T06:20:51;101604.84;;;3.48;100.00
4586;BME280;2305;50.118;8.952;2023-01-28T06:23:22;101608.09;;;3.55;100.00
4586;BME280;2305;50.118;8.952;2023-01-28T06:25:52;101605.66;;;3.50;100.00
4586;BME280;2305;50.118;8.952;2023-01-28T06:31:47;101608.25;;;3.50;100.00
4586;BME280;2305;50.118;8.952;2023-01-28T06:34:16;101616.97;;;3.49;100.00
4586;BME280;2305;50.118;8.952;2023-01-28T06:36:45;101614.38;;;3.49;100.00
4586;BME280;2305;50.118;8.952;2023-01-28T06:39:15;101619.38;;;3.55;100.00
4586;BME280;2305;50.118;8.952;2023-01-28T06:41:46;101620.47;;;3.48;100.00
4586;BME280;2305;50.118;8.952;2023-01-28T06:44:14;101627.44;;;3.48;100.00
4586;BME280;2305;50.118;8.952;2023-01-28T06:46:43;101624.78;;;3.49;100.00
4586;BME280;2305;50.118;8.952;2023-01-28T06:49:12;101628.16;;;3.53;100.00
4586;BME280;2305;50.118;8.952;2023-01-28T06:51:40;101629.06;;;3.52;100.00
4586;BME280;2305;50.118;8.952;2023-01-28T06:54:08;101630.00;;;3.49;100.00
4586;BME280;2305;50.118;8.952;2023-01-28T06:56:38;101632.56;;;3.51;100.00
4586;BME280;2305;50.118;8.952;2023-01-28T06:59:06;101630.88;;;3.50;100.00
4586;BME280;2305;50.118;8.952;2023-01-28T07:01:34;101631.81;;;3.47;100.00
4586;BME280;2305;50.118;8.952;2023-01-28T07:04:03;101636.06;;;3.50;100.00
4586;BME280;2305;50.118;8.952;2023-01-28T07:06:31;101636.88;;;3.52;100.00
4586;BME280;2305;50.118;8.952;2023-01-28T07:09:00;101640.19;;;3.57;100.00
4586;BME280;2305;50.118;8.952;2023-01-28T07:11:29;101638.50;;;3.56;100.00
4586;BME280;2305;50.118;8.952;2023-01-28T07:14:04;101643.63;;;3.57;100.00
4586;BME280;2305;50.118;8.952;2023-01-28T07:16:32;101646.31;;;3.56;100.00
4586;BME280;2305;50.118;8.952;2023-01-28T07:19:01;101647.91;;;3.60;100.00
4586;BME280;2305;50.118;8.952;2023-01-28T07:21:30;101648.75;;;3.60;100.00
4586;BME280;2305;50.118;8.952;2023-01-28T07:23:58;101644.31;;;3.64;100.00
4586;BME280;2305;50.118;8.952;2023-01-28T07:26:26;101644.38;;;3.61;100.00
4586;BME280;2305;50.118;8.952;2023-01-28T07:28:54;101646.03;;;3.63;100.00
4586;BME280;2305;50.118;8.952;2023-01-28T07:31:24;101644.31;;;3.64;100.00
4586;BME280;2305;50.118;8.952;2023-01-28T07:33:52;101649.53;;;3.64;100.00
4586;BME280;2305;50.118;8.952;2023-01-28T07:36:24;101649.53;;;3.64;100.00
4586;BME280;2305;50.118;8.952;2023-01-28T07:39:10;101650.16;;;3.70;100.00
4586;BME280;2305;50.118;8.952;2023-01-28T07:41:40;101652.81;;;3.69;100.00
4586;BME280;2305;50.118;8.952;2023-01-28T07:44:10;101651.19;;;3.66;100.00
4586;BME280;2305;50.118;8.952;2023-01-28T07:46:40;101652.81;;;3.69;100.00
4586;BME280;2305;50.118;8.952;2023-01-28T07:49:08;101658.13;;;3.66;100.00
4586;BME280;2305;50.118;8.952;2023-01-28T07:51:36;101667.66;;;3.67;100.00
4586;BME280;2305;50.118;8.952;2023-01-28T07:54:05;101673.53;;;3.73;100.00
4586;BME280;2305;50.118;8.952;2023-01-28T07:56:34;101676.94;;;3.75;100.00
4586;BME280;2305;50.118;8.952;2023-01-28T07:59:02;101676.91;;;3.77;100.00
4586;BME280;2305;50.118;8.952;2023-01-28T08:01:30;101675.16;;;3.76;100.00
4586;BME280;2305;50.118;8.952;2023-01-28T08:04:03;101683.69;;;3.81;100.00
4586;BME280;2305;50.118;8.952;2023-01-28T08:06:31;101684.50;;;3.83;100.00
4586;BME280;2305;50.118;8.952;2023-01-28T08:09:03;101687.06;;;3.84;100.00
4586;BME280;2305;50.118;8.952;2023-01-28T08:11:36;101683.47;;;3.88;100.00
4586;BME280;2305;50.118;8.952;2023-01-28T08:14:05;101688.84;;;3.84;100.00
4586;BME280;2305;50.118;8.952;2023-01-28T08:16:33;101690.53;;;3.85;100.00
4586;BME280;2305;50.118;8.952;2023-01-28T08:19:02;101690.47;;;3.86;100.00
4586;BME280;2305;50.118;8.952;2023-01-28T08:21:30;101706.03;;;3.89;100.00
4586;BME280;2305;50.118;8.952;2023-01-28T08:23:59;101696.38;;;3.91;100.00
4586;BME280;2305;50.118;8.952;2023-01-28T08:26:27;101694.69;;;3.90;100.00
4586;BME280;2305;50.118;8.952;2023-01-28T08:28:55;101695.47;;;3.92;100.00
4586;BME280;2305;50.118;8.952;2023-01-28T08:31:24;101700.66;;;3.94;100.00
4586;BME280;2305;50.118;8.952;2023-01-28T08:33:52;101698.88;;;3.94;100.00
4586;BME280;2305;50.118;8.952;2023-01-28T08:36:24;101699.72;;;3.96;100.00
4586;BME280;2305;50.118;8.952;2023-01-28T08:38:52;101701.44;;;3.96;100.00
4586;BME280;2305;50.118;8.952;2023-01-28T08:41:21;101703.97;;;3.99;100.00
4586;BME280;2305;50.118;8.952;2023-01-28T08:43:50;101696.06;;;4.00;100.00
4586;BME280;2305;50.118;8.952;2023-01-28T08:46:18;101703.75;;;4.05;100.00
4586;BME280;2305;50.118;8.952;2023-01-28T08:48:48;101700.25;;;4.06;100.00
4586;BME280;2305;50.118;8.952;2023-01-28T08:51:17;101703.75;;;4.05;100.00
4586;BME280;2305;50.118;8.952;2023-01-28T08:53:46;101702.78;;;4.07;100.00
4586;BME280;2305;50.118;8.952;2023-01-28T08:56:14;101702.13;;;4.02;100.00
4586;BME280;2305;50.118;8.952;2023-01-28T08:58:43;101703.69;;;4.06;100.00
4586;BME280;2305;50.118;8.952;2023-01-28T09:01:11;101706.22;;;4.09;100.00
4586;BME280;2305;50.118;8.952;2023-01-28T09:03:39;101717.53;;;4.08;100.00
4586;BME280;2305;50.118;8.952;2023-01-28T09:06:08;101713.22;;;4.07;100.00
4586;BME280;2305;50.118;8.952;2023-01-28T09:08:36;101711.56;;;4.05;100.00
4586;BME280;2305;50.118;8.952;2023-01-28T09:11:06;101717.81;;;4.01;100.00
4586;BME280;2305;50.118;8.952;2023-01-28T09:13:34;101724.84;;;3.99;100.00
4586;BME280;2305;50.118;8.952;2023-01-28T09:16:04;101722.25;;;3.97;100.00
4586;BME280;2305;50.118;8.952;2023-01-28T09:18:34;101723.66;;;4.07;100.00
4586;BME280;2305;50.118;8.952;2023-01-28T09:21:03;101725.25;;;4.13;100.00
4586;BME280;2305;50.118;8.952;2023-01-28T09:23:34;101727.84;;;4.13;100.00
4586;BME280;2305;50.118;8.952;2023-01-28T09:26:13;101729.59;;;4.12;100.00
4586;BME280;2305;50.118;8.952;2023-01-28T09:28:46;101728.69;;;4.13;100.00
4586;BME280;2305;50.118;8.952;2023-01-28T09:31:14;101732.00;;;4.18;100.00
4586;BME280;2305;50.118;8.952;2023-01-28T09:33:42;101736.53;;;4.12;100.00
4586;BME280;2305;50.118;8.952;2023-01-28T09:36:11;101733.09;;;4.11;100.00
4586;BME280;2305;50.118;8.952;2023-01-28T09:38:38;101737.66;;;4.05;100.00
4586;BME280;2305;50.118;8.952;2023-01-28T09:41:22;101741.06;;;4.07;100.00
4586;BME280;2305;50.118;8.952;2023-01-28T09:44:06;101742.75;;;4.09;100.00
4586;BME280;2305;50.118;8.952;2023-01-28T09:46:42;101742.81;;;4.06;100.00
4586;BME280;2305;50.118;8.952;2023-01-28T09:49:18;101747.06;;;4.10;100.00
4586;BME280;2305;50.118;8.952;2023-01-28T09:51:51;101750.41;;;4.14;100.00
4586;BME280;2305;50.118;8.952;2023-01-28T09:54:28;101754.31;;;4.01;100.00
4586;BME280;2305;50.118;8.952;2023-01-28T09:57:03;101750.69;;;4.05;100.00
4586;BME280;2305;50.118;8.952;2023-01-28T09:59:33;101760.09;;;4.10;100.00
4586;BME280;2305;50.118;8.952;2023-01-28T10:02:18;101752.94;;;4.15;100.00
4586;BME280;2305;50.118;8.952;2023-01-28T10:04:58;101761.47;;;4.20;100.00
4586;BME280;2305;50.118;8.952;2023-01-28T10:07:35;101757.06;;;4.22;100.00
4586;BME280;2305;50.118;8.952;2023-01-28T10:10:12;101763.09;;;4.24;100.00
4586;BME280;2305;50.118;8.952;2023-01-28T10:13:03;101763.00;;;4.27;100.00
4586;BME280;2305;50.118;8.952;2023-01-28T10:15:48;101761.09;;;4.32;100.00
4586;BME280;2305;50.118;8.952;2023-01-28T10:18:27;101762.78;;;4.33;100.00
4586;BME280;2305;50.118;8.952;2023-01-28T10:21:04;101767.22;;;4.31;100.00
4586;BME280;2305;50.118;8.952;2023-01-28T10:23:43;101767.06;;;4.35;100.00
4586;BME280;2305;50.118;8.952;2023-01-28T10:26:21;101761.88;;;4.34;100.00
4586;BME280;2305;50.118;8.952;2023-01-28T10:28:54;101772.28;;;4.35;100.00
4586;BME280;2305;50.118;8.952;2023-01-28T10:31:30;101771.41;;;4.35;100.00
4586;BME280;2305;50.118;8.952;2023-01-28T10:33:59;101776.53;;;4.38;100.00
4586;BME280;2305;50.118;8.952;2023-01-28T10:36:28;101773.94;;;4.38;100.00
4586;BME280;2305;50.118;8.952;2023-01-28T10:38:57;101764.13;;;4.44;100.00
4586;BME280;2305;50.118;8.952;2023-01-28T10:41:31;101765.84;;;4.45;100.00
4586;BME280;2305;50.118;8.952;2023-01-28T10:44:01;101764.06;;;4.47;100.00
4586;BME280;2305;50.118;8.952;2023-01-28T10:46:33;101764.25;;;4.41;100.00
4586;BME280;2305;50.118;8.952;2023-01-28T10:49:11;101772.84;;;4.45;100.00
4586;BME280;2305;50.118;8.952;2023-01-28T10:51:42;101769.47;;;4.41;100.00
4586;BME280;2305;50.118;8.952;2023-01-28T10:54:18;101774.63;;;4.43;100.00
4586;BME280;2305;50.118;8.952;2023-01-28T10:56:48;101775.59;;;4.40;100.00
4586;BME280;2305;50.118;8.952;2023-01-28T10:59:21;101780.84;;;4.39;100.00
4586;BME280;2305;50.118;8.952;2023-01-28T11:01:52;101771.22;;;4.41;100.00
4586;BME280;2305;50.118;8.952;2023-01-28T11:04:23;101762.56;;;4.40;100.00
4586;BME280;2305;50.118;8.952;2023-01-28T11:06:56;101770.25;;;4.43;100.00
4586;BME280;2305;50.118;8.952;2023-01-28T11:09:29;101771.00;;;4.47;100.00
4586;BME280;2305;50.118;8.952;2023-01-28T11:11:58;101778.06;;;4.45;100.00
4586;BME280;2305;50.118;8.952;2023-01-28T11:14:28;101773.59;;;4.48;100.00
4586;BME280;2305;50.118;8.952;2023-01-28T11:16:57;101767.53;;;4.46;100.00
4586;BME280;2305;50.118;8.952;2023-01-28T11:19:31;101771.88;;;4.47;100.00
4586;BME280;2305;50.118;8.952;2023-01-28T11:22:02;101772.88;;;4.43;100.00
4586;BME280;2305;50.118;8.952;2023-01-28T11:24:32;101765.00;;;4.45;100.00
4586;BME280;2305;50.118;8.952;2023-01-28T11:27:11;101762.41;;;4.45;100.00
4586;BME280;2305;50.118;8.952;2023-01-28T11:29:45;101767.69;;;4.42;100.00
4586;BME280;2305;50.118;8.952;2023-01-28T11:32:17;101773.06;;;4.37;100.00
4586;BME280;2305;50.118;8.952;2023-01-28T11:34:50;101772.09;;;4.41;100.00
4586;BME280;2305;50.118;8.952;2023-01-28T11:37:20;101765.09;;;4.42;100.00
4586;BME280;2305;50.118;8.952;2023-01-28T11:40:00;101767.03;;;4.37;100.00
4586;BME280;2305;50.118;8.952;2023-01-28T11:42:29;101768.75;;;4.36;100.00
4586;BME280;2305;50.118;8.952;2023-01-28T11:44:59;101767.06;;;4.35;100.00
4586;BME280;2305;50.118;8.952;2023-01-28T11:47:40;101758.38;;;4.35;100.00
4586;BME280;2305;50.118;8.952;2023-01-28T11:50:31;101756.63;;;4.35;100.00
4586;BME280;2305;50.118;8.952;2023-01-28T11:53:20;101769.41;;;4.43;100.00
4586;BME280;2305;50.118;8.952;2023-01-28T11:56:05;101751.22;;;4.41;100.00
4586;BME280;2305;50.118;8.952;2023-01-28T11:58:46;101750.31;;;4.42;100.00
4586;BME280;2305;50.118;8.952;2023-01-28T12:01:27;101745.78;;;4.47;100.00
4586;BME280;2305;50.118;8.952;2023-01-28T12:04:38;101742.34;;;4.45;100.00
4586;BME280;2305;50.118;8.952;2023-01-28T12:07:25;101746.63;;;4.48;100.00
4586;BME280;2305;50.118;8.952;2023-01-28T12:09:59;101739.66;;;4.48;100.00
4586;BME280;2305;50.118;8.952;2023-01-28T12:12:51;101736.94;;;4.51;100.00
4586;BME280;2305;50.118;8.952;2023-01-28T12:15:43;101737.03;;;4.48;100.00
4586;BME280;2305;50.118;8.952;2023-01-28T12:21:17;101734.69;;;4.41;100.00
4586;BME280;2305;50.118;8.952;2023-01-28T12:24:00;101737.25;;;4.42;100.00
4586;BME280;2305;50.118;8.952;2023-01-28T12:26:44;101743.22;;;4.46;100.00
4586;BME280;2305;50.118;8.952;2023-01-28T12:29:26;101736.34;;;4.43;100.00
4586;BME280;2305;50.118;8.952;2023-01-28T12:32:11;101744.00;;;4.48;100.00
4586;BME280;2305;50.118;8.952;2023-01-28T12:37:47;101739.59;;;4.50;100.00
4586;BME280;2305;50.118;8.952;2023-01-28T12:40:41;101738.63;;;4.52;100.00
4586;BME280;2305;50.118;8.952;2023-01-28T12:43:15;101742.31;;;4.47;100.00
4586;BME280;2305;50.118;8.952;2023-01-28T12:45:52;101743.19;;;4.47;100.00
4586;BME280;2305;50.118;8.952;2023-01-28T12:48:27;101731.75;;;4.50;100.00
4586;BME280;2305;50.118;8.952;2023-01-28T12:51:02;101722.13;;;4.52;100.00
4586;BME280;2305;50.118;8.952;2023-01-28T12:53:37;101719.53;;;4.52;100.00
4586;BME280;2305;50.118;8.952;2023-01-28T12:56:11;101722.97;;;4.52;100.00
4586;BME280;2305;50.118;8.952;2023-01-28T12:58:47;101730.63;;;4.57;100.00
4586;BME280;2305;50.118;8.952;2023-01-28T13:01:20;101726.53;;;4.50;100.00
4586;BME280;2305;50.118;8.952;2023-01-28T13:03:56;101731.84;;;4.48;100.00
4586;BME280;2305;50.118;8.952;2023-01-28T13:06:30;101727.56;;;4.46;100.00
4586;BME280;2305;50.118;8.952;2023-01-28T13:09:10;101724.38;;;4.38;100.00
4586;BME280;2305;50.118;8.952;2023-01-28T13:11:42;101727.88;;;4.37;100.00
4586;BME280;2305;50.118;8.952;2023-01-28T13:14:12;101726.06;;;4.39;100.00
4586;BME280;2305;50.118;8.952;2023-01-28T13:16:41;101732.19;;;4.38;100.00
4586;BME280;2305;50.118;8.952;2023-01-28T13:19:22;101743.41;;;4.40;100.00
4586;BME280;2305;50.118;8.952;2023-01-28T13:21:52;101750.47;;;4.38;100.00
4586;BME280;2305;50.118;8.952;2023-01-28T13:24:30;101746.06;;;4.38;100.00
4586;BME280;2305;50.118;8.952;2023-01-28T13:27:10;101742.56;;;4.39;100.00
4586;BME280;2305;50.118;8.952;2023-01-28T13:29:39;101749.59;;;4.37;100.00
4586;BME280;2305;50.118;8.952;2023-01-28T13:32:29;101763.50;;;4.38;100.00
4586;BME280;2305;50.118;8.952;2023-01-28T13:34:59;101760.91;;;4.38;100.00
4586;BME280;2305;50.118;8.952;2023-01-28T13:37:32;101765.44;;;4.31;100.00
4586;BME280;2305;50.118;8.952;2023-01-28T13:40:06;101770.66;;;4.31;100.00
4586;BME280;2305;50.118;8.952;2023-01-28T13:42:36;101776.69;;;4.33;100.00
4586;BME280;2305;50.118;8.952;2023-01-28T13:45:22;101762.47;;;4.42;100.00
4586;BME280;2305;50.118;8.952;2023-01-28T13:47:54;101766.75;;;4.44;100.00
4586;BME280;2305;50.118;8.952;2023-01-28T13:50:32;101766.00;;;4.41;100.00
4586;BME280;2305;50.118;8.952;2023-01-28T13:53:16;101767.84;;;4.37;100.00
4586;BME280;2305;50.118;8.952;2023-01-28T13:55:48;101764.50;;;4.34;100.00